Time;durP1;ratioP1;P1;durP2;ratioP2;P2;SDS_P1;SDS_P2;PMS_P1;PMS_P2;Temp;Humidity;BMP_temperature;BMP_pressure;BME280_temperature;BME280_humidity;BME280_pressure;Samples;Min_cycle;Max_cycle;Signal;HPM_P1;HPM_P2
2022/11/11 00:01:09;;;;;;;21.05;12.20;;;6.70;56.30;;;;;;7364909;19;20026;-73
2022/11/11 00:03:38;;;;;;;18.40;12.02;;;6.70;56.60;;;;;;7365831;19;20025;-72
2022/11/11 00:06:13;;;;;;;17.80;11.60;;;6.70;56.40;;;;;;7390036;19;20023;-72
2022/11/11 00:08:43;;;;;;;18.52;12.48;;;6.60;56.20;;;;;;7367931;19;20725;-72
2022/11/11 00:11:15;;;;;;;17.30;12.02;;;6.60;56.00;;;;;;7365014;19;20018;-72
2022/11/11 00:13:45;;;;;;;16.50;11.50;;;6.60;56.30;;;;;;7363462;19;20042;-73
2022/11/11 00:16:17;;;;;;;22.98;13.20;;;6.60;56.50;;;;;;7369009;19;20030;-72
2022/11/11 00:27:06;;;;;;;19.30;14.10;;;6.60;57.20;;;;;;7367889;19;20018;-73
2022/11/11 00:29:37;;;;;;;21.15;14.48;;;6.60;56.90;;;;;;7366371;19;20015;-73
2022/11/11 00:37:35;;;;;;;23.08;14.35;;;6.50;57.40;;;;;;7367614;19;20031;-72
2022/11/11 00:40:05;;;;;;;20.85;14.63;;;6.50;57.30;;;;;;7366012;19;20035;-72
2022/11/11 00:42:36;;;;;;;23.13;13.75;;;6.50;57.40;;;;;;7384145;19;20011;-72
2022/11/11 00:45:07;;;;;;;22.13;14.43;;;6.50;57.60;;;;;;7367462;19;20036;-72
2022/11/11 00:53:10;;;;;;;;;;;6.50;58.30;;;;;;7363692;19;20097;-72
2022/11/11 00:55:40;;;;;;;;;;;6.50;58.50;;;;;;7369661;19;20344;-72
2022/11/11 00:58:10;;;;;;;21.65;14.80;;;6.40;58.10;;;;;;7365135;19;19938;-72
2022/11/11 01:00:39;;;;;;;23.48;15.50;;;6.40;58.20;;;;;;7364884;19;20038;-73
2022/11/11 01:03:09;;;;;;;21.27;14.57;;;6.40;58.20;;;;;;7382948;19;20042;-72
2022/11/11 01:05:39;;;;;;;20.90;15.05;;;6.30;58.20;;;;;;7367849;19;20212;-73
2022/11/11 01:08:12;;;;;;;20.95;14.57;;;6.30;58.20;;;;;;7367266;19;20009;-72
2022/11/11 01:10:43;;;;;;;22.88;15.10;;;6.30;58.20;;;;;;7363635;19;20039;-72
2022/11/11 01:13:20;;;;;;;24.88;15.25;;;6.30;58.30;;;;;;7359288;19;20019;-72
2022/11/11 01:15:51;;;;;;;22.40;15.48;;;6.30;58.20;;;;;;7368005;19;20415;-72
2022/11/11 01:18:23;;;;;;;22.42;15.98;;;6.20;58.50;;;;;;7390326;19;20017;-72
2022/11/11 01:21:01;;;;;;;22.67;16.63;;;6.30;58.90;;;;;;7364450;19;20010;-72
2022/11/11 01:23:38;;;;;;;22.80;16.40;;;6.30;58.70;;;;;;7360400;19;20015;-73
2022/11/11 01:26:11;;;;;;;22.95;16.00;;;6.30;58.70;;;;;;7366762;19;20778;-72
2022/11/11 01:28:42;;;;;;;25.20;16.63;;;6.30;58.70;;;;;;7366660;19;20057;-72
2022/11/11 01:31:16;;;;;;;22.48;15.20;;;6.30;58.60;;;;;;7364646;19;20014;-71
2022/11/11 01:33:46;;;;;;;23.00;14.93;;;6.30;58.50;;;;;;7361006;19;20079;-72
2022/11/11 01:36:18;;;;;;;24.95;14.70;;;6.30;58.40;;;;;;7388585;19;20026;-72
2022/11/11 01:38:54;;;;;;;24.13;13.90;;;6.20;57.90;;;;;;7365772;19;20006;-71
2022/11/11 01:41:36;;;;;;;19.52;14.82;;;6.20;57.90;;;;;;7363906;19;20014;-71
2022/11/11 01:44:21;;;;;;;27.25;15.02;;;6.20;57.80;;;;;;7360730;19;20006;-72
2022/11/11 01:46:59;;;;;;;22.23;14.27;;;6.10;57.60;;;;;;7366004;19;20127;-72
2022/11/11 01:49:31;;;;;;;27.17;14.52;;;6.20;57.90;;;;;;7365740;19;20097;-73
2022/11/11 01:52:08;;;;;;;23.63;14.50;;;6.20;57.50;;;;;;7361924;19;20425;-73
2022/11/11 01:54:45;;;;;;;19.50;14.15;;;6.20;57.50;;;;;;7370960;19;20014;-73
2022/11/11 01:57:21;;;;;;;27.05;14.75;;;6.20;57.40;;;;;;7385775;19;20474;-72
2022/11/11 01:59:59;;;;;;;21.48;15.00;;;6.10;57.10;;;;;;7364694;19;20007;-72
2022/11/11 02:02:34;;;;;;;24.33;14.93;;;6.10;57.50;;;;;;7358965;19;20002;-72
2022/11/11 02:07:49;;;;;;;17.80;14.10;;;6.20;57.50;;;;;;7365680;19;20033;-72
2022/11/11 02:10:24;;;;;;;20.63;14.20;;;6.20;57.40;;;;;;7364297;19;20074;-72
2022/11/11 02:15:37;;;;;;;26.15;15.75;;;6.20;57.00;;;;;;7386968;19;20014;-75
2022/11/11 02:18:08;;;;;;;23.45;15.55;;;6.10;56.70;;;;;;7386280;19;20772;-71
2022/11/11 02:20:40;;;;;;;22.02;15.32;;;6.10;56.80;;;;;;7363344;19;20006;-71
2022/11/11 02:23:14;;;;;;;22.52;13.88;;;6.10;56.80;;;;;;7356244;19;20003;-71
2022/11/11 02:25:50;;;;;;;21.90;14.02;;;6.00;56.70;;;;;;7365234;19;20007;-72
2022/11/11 02:28:22;;;;;;;21.35;14.27;;;6.00;56.70;;;;;;7365001;19;20006;-73
2022/11/11 02:30:52;;;;;;;21.65;14.40;;;6.00;57.00;;;;;;7362166;19;20022;-72
2022/11/11 02:33:22;;;;;;;24.50;13.95;;;6.00;57.00;;;;;;7381010;19;20086;-72
2022/11/11 02:35:57;;;;;;;25.90;15.30;;;6.00;57.30;;;;;;7364237;19;20052;-72
2022/11/11 02:38:28;;;;;;;24.65;15.73;;;6.00;57.10;;;;;;7364329;19;20501;-73
2022/11/11 02:43:43;;;;;;;;;;;5.90;57.00;;;;;;7360045;19;20010;-72
2022/11/11 02:46:13;;;;;;;23.20;14.52;;;5.90;57.20;;;;;;7364936;19;20391;-72
2022/11/11 02:48:42;;;;;;;22.50;15.52;;;5.90;57.30;;;;;;7363621;19;20484;-73
2022/11/11 02:51:12;;;;;;;24.55;16.13;;;5.90;57.10;;;;;;7383492;19;20018;-73
2022/11/11 02:53:42;;;;;;;20.00;14.45;;;5.90;57.10;;;;;;7358366;19;20010;-72
2022/11/11 02:57:05;;;;;;;20.20;14.25;;;5.90;57.30;;;;;;7362918;19;20462;-72
2022/11/11 02:59:06;;;;;;;22.40;15.07;;;5.90;57.30;;;;;;7364338;19;20013;-72
2022/11/11 03:01:35;;;;;;;20.10;14.45;;;6.00;58.00;;;;;;7362064;19;20027;-72
2022/11/11 03:04:06;;;;;;;18.95;14.25;;;6.00;57.90;;;;;;7357229;19;20022;-71
2022/11/11 03:06:36;;;;;;;20.08;14.77;;;6.10;58.20;;;;;;7386365;19;20066;-72
2022/11/11 03:09:06;;;;;;;21.02;13.85;;;6.10;58.10;;;;;;7363950;19;20010;-71
2022/11/11 03:11:40;;;;;;;27.13;14.85;;;6.00;57.50;;;;;;7359324;19;20482;-72
2022/11/11 03:14:10;;;;;;;21.42;15.23;;;6.00;57.40;;;;;;7358350;19;20014;-71
2022/11/11 03:19:23;;;;;;;22.05;13.52;;;6.00;57.10;;;;;;7361432;19;20028;-73
2022/11/11 03:21:50;;;;;;;21.23;14.50;;;6.00;56.90;;;;;;7361565;19;20014;-73
2022/11/11 03:27:25;;;;;;;19.75;13.88;;;5.90;56.70;;;;;;7384176;19;20455;-73
2022/11/11 03:29:54;;;;;;;26.10;13.32;;;5.90;56.40;;;;;;7362299;19;20013;-73
2022/11/11 03:32:24;;;;;;;20.90;13.95;;;5.90;56.40;;;;;;7355518;19;20028;-73
2022/11/11 03:34:54;;;;;;;18.75;12.95;;;5.90;56.30;;;;;;7362975;19;20010;-73
2022/11/11 03:40:07;;;;;;;17.60;12.52;;;5.80;56.10;;;;;;7368597;19;20501;-73
2022/11/11 03:42:40;;;;;;;21.20;13.52;;;5.80;55.90;;;;;;7381082;19;20014;-74
2022/11/11 03:45:11;;;;;;;21.77;12.55;;;5.80;55.90;;;;;;7392671;19;20488;-73
2022/11/11 03:47:41;;;;;;;18.02;13.50;;;5.80;55.60;;;;;;7367941;19;20014;-73
2022/11/11 03:50:11;;;;;;;17.45;13.43;;;5.80;55.70;;;;;;7367684;19;20013;-73
2022/11/11 03:52:43;;;;;;;22.00;13.27;;;5.80;55.30;;;;;;7363846;19;20014;-72
2022/11/11 03:55:13;;;;;;;20.65;13.20;;;5.80;55.30;;;;;;7369694;19;20011;-71
2022/11/11 03:57:47;;;;;;;19.00;13.30;;;5.70;55.10;;;;;;7367955;19;20022;-71
2022/11/11 04:00:19;;;;;;;19.08;13.32;;;5.70;55.00;;;;;;7389291;19;20018;-72
2022/11/11 04:10:59;;;;;;;19.35;14.43;;;5.70;55.70;;;;;;7365403;19;20014;-71
2022/11/11 04:16:15;;;;;;;21.85;15.10;;;5.70;55.20;;;;;;7370169;19;20499;-71
2022/11/11 04:26:57;;;;;;;24.25;15.93;;;5.60;55.00;;;;;;7367239;19;20466;-71
2022/11/11 04:29:28;;;;;;;24.27;15.88;;;5.60;55.50;;;;;;7368587;19;20035;-71
2022/11/11 04:34:45;;;;;;;24.38;15.85;;;5.60;56.00;;;;;;7367071;19;20074;-72
2022/11/11 04:37:16;;;;;;;25.90;16.27;;;5.60;56.00;;;;;;7368167;19;20025;-72
2022/11/11 04:42:28;;;;;;;23.23;15.45;;;5.50;55.70;;;;;;7384062;19;20018;-71
2022/11/11 04:47:55;;;;;;;22.10;15.63;;;5.40;55.80;;;;;;7363889;19;20011;-72
2022/11/11 04:50:26;;;;;;;22.08;15.13;;;5.40;55.70;;;;;;7366586;19;20003;-72
2022/11/11 04:52:56;;;;;;;22.52;15.75;;;5.40;55.80;;;;;;7358517;19;20014;-71
2022/11/11 04:58:09;;;;;;;23.40;16.00;;;5.40;55.60;;;;;;7365749;19;20022;-72
2022/11/11 05:00:41;;;;;;;23.45;16.17;;;5.40;55.70;;;;;;7369327;19;20021;-72
2022/11/11 05:03:17;;;;;;;20.17;14.73;;;5.40;55.60;;;;;;7379622;19;20057;-72
2022/11/11 05:11:14;;;;;;;19.15;12.30;;;5.30;55.80;;;;;;7365299;19;20279;-72
2022/11/11 05:21:58;;;;;;;20.48;12.40;;;5.40;56.20;;;;;;7365252;19;20489;-71
2022/11/11 05:27:11;;;;;;;23.67;12.40;;;5.30;55.90;;;;;;7366079;19;20020;-71
2022/11/11 05:29:41;;;;;;;22.50;12.35;;;5.30;55.80;;;;;;7366216;19;20010;-71
2022/11/11 05:32:18;;;;;;;23.30;12.63;;;5.30;56.00;;;;;;7361171;19;20478;-72
2022/11/11 05:34:48;;;;;;;18.48;12.18;;;5.30;56.00;;;;;;7363933;19;20502;-72
2022/11/11 05:37:18;;;;;;;18.42;11.40;;;5.30;56.10;;;;;;7366684;19;20007;-72
2022/11/11 05:39:48;;;;;;;19.88;12.63;;;5.30;56.20;;;;;;7365211;19;20454;-71
2022/11/11 05:42:18;;;;;;;20.10;12.90;;;5.30;56.40;;;;;;7382711;19;20433;-71
2022/11/11 05:44:48;;;;;;;20.90;12.40;;;5.40;56.70;;;;;;7362904;19;20020;-72
2022/11/11 05:47:20;;;;;;;18.05;11.70;;;5.40;56.50;;;;;;7364317;19;20013;-72
2022/11/11 05:49:50;;;;;;;17.63;10.98;;;5.40;56.30;;;;;;7365568;19;20067;-71
2022/11/11 05:52:20;;;;;;;21.60;12.38;;;5.40;56.10;;;;;;7359224;19;20007;-71
2022/11/11 05:54:50;;;;;;;16.88;12.07;;;5.40;55.90;;;;;;7361725;19;20061;-71
2022/11/11 05:57:20;;;;;;;20.08;12.13;;;5.40;55.70;;;;;;7385785;19;20042;-72
2022/11/11 05:59:50;;;;;;;20.33;12.00;;;5.40;55.50;;;;;;7365039;19;20478;-72
2022/11/11 06:02:22;;;;;;;17.45;11.85;;;5.40;55.10;;;;;;7360521;19;20099;-71
2022/11/11 06:04:53;;;;;;;17.60;11.23;;;5.30;54.50;;;;;;7363469;19;20642;-72
2022/11/11 06:07:22;;;;;;;17.20;11.93;;;5.30;54.20;;;;;;7364291;19;20530;-72
2022/11/11 06:10:29;;;;;;;19.63;12.15;;;5.30;53.90;;;;;;7364016;19;20018;-72
2022/11/11 06:13:00;;;;;;;16.15;11.80;;;5.20;53.50;;;;;;7358677;19;20006;-73
2022/11/11 06:15:30;;;;;;;19.48;10.90;;;5.30;53.60;;;;;;7387330;19;20038;-73
2022/11/11 06:18:03;;;;;;;14.70;10.27;;;5.30;53.30;;;;;;7362245;19;20011;-72
2022/11/11 06:20:34;;;;;;;17.38;11.15;;;5.30;52.80;;;;;;7364899;19;20006;-72
2022/11/11 06:23:04;;;;;;;17.95;10.20;;;5.30;52.50;;;;;;7355060;19;20026;-72
2022/11/11 06:28:18;;;;;;;12.90;9.75;;;5.30;51.90;;;;;;7360771;19;20038;-71
2022/11/11 06:30:49;;;;;;;16.48;9.68;;;5.30;51.20;;;;;;7364022;19;20022;-72
2022/11/11 06:33:23;;;;;;;17.20;9.80;;;5.20;50.60;;;;;;7376296;19;20046;-72
2022/11/11 06:35:53;;;;;;;14.85;9.70;;;5.20;50.70;;;;;;7365042;19;20086;-71
2022/11/11 06:38:23;;;;;;;13.60;9.75;;;5.20;50.40;;;;;;7361012;19;20011;-71
2022/11/11 06:40:53;;;;;;;14.90;10.25;;;5.20;50.50;;;;;;7362693;19;20585;-72
2022/11/11 06:43:23;;;;;;;17.08;10.55;;;5.20;50.50;;;;;;7354810;19;20018;-72
2022/11/11 06:45:55;;;;;;;16.38;10.80;;;5.20;50.50;;;;;;7364333;19;20019;-72
2022/11/11 06:48:29;;;;;;;18.17;11.02;;;5.20;50.50;;;;;;7384183;19;20021;-72
2022/11/11 06:51:04;;;;;;;17.17;11.60;;;5.20;50.50;;;;;;7363576;19;20410;-72
2022/11/11 06:53:35;;;;;;;13.13;10.40;;;5.20;50.30;;;;;;7353271;19;20109;-72
2022/11/11 06:56:06;;;;;;;15.48;10.85;;;5.30;50.50;;;;;;7364051;19;20006;-72
2022/11/11 06:58:37;;;;;;;21.23;10.15;;;5.30;49.80;;;;;;7364875;19;20002;-72
2022/11/11 07:01:08;;;;;;;15.45;10.43;;;5.30;49.40;;;;;;7367188;19;20474;-72
2022/11/11 07:03:40;;;;;;;15.60;10.25;;;5.50;49.60;;;;;;7367058;19;20509;-72
2022/11/11 07:06:10;;;;;;;15.90;9.68;;;5.50;48.70;;;;;;7384680;19;20074;-72
2022/11/11 07:08:43;;;;;;;13.40;9.50;;;5.50;48.00;;;;;;7360543;19;20017;-72
2022/11/11 07:11:13;;;;;;;16.25;9.70;;;5.60;47.80;;;;;;7360942;19;20033;-72
2022/11/11 07:13:48;;;;;;;14.13;10.35;;;5.60;46.80;;;;;;7356456;19;20014;-73
2022/11/11 07:16:17;;;;;;;15.10;9.70;;;5.60;46.60;;;;;;7362107;19;20018;-73
2022/11/11 07:18:50;;;;;;;17.88;11.40;;;5.60;46.50;;;;;;7361502;19;20086;-72
2022/11/11 07:21:20;;;;;;;17.33;10.82;;;5.70;45.60;;;;;;7382827;19;20018;-72
2022/11/11 07:23:49;;;;;;;14.48;10.95;;;5.80;44.50;;;;;;7356869;19;20014;-71
2022/11/11 07:26:19;;;;;;;14.02;10.20;;;5.80;42.90;;;;;;7363157;19;20008;-72
2022/11/11 07:28:50;;;;;;;16.80;9.98;;;5.80;42.40;;;;;;7361533;19;20010;-71
2022/11/11 07:31:20;;;;;;;15.15;10.57;;;5.90;41.80;;;;;;7359383;19;20833;-72
2022/11/11 07:33:53;;;;;;;19.33;10.20;;;5.80;39.60;;;;;;7356029;19;20488;-72
2022/11/11 07:36:23;;;;;;;17.83;10.98;;;5.80;39.30;;;;;;7385039;19;20487;-71
2022/11/11 07:38:53;;;;;;;13.75;10.25;;;5.80;39.50;;;;;;7359667;19;20017;-72
2022/11/11 07:41:23;;;;;;;13.55;9.77;;;5.80;38.70;;;;;;7357934;19;20021;-74
2022/11/11 07:46:35;;;;;;;13.30;9.63;;;5.90;38.80;;;;;;7360605;19;20017;-73
2022/11/11 07:49:07;;;;;;;20.02;11.65;;;5.90;37.50;;;;;;7361840;19;20022;-72
2022/11/11 07:51:37;;;;;;;20.98;10.68;;;6.00;37.90;;;;;;7375444;19;20018;-73
2022/11/11 07:54:07;;;;;;;17.27;9.18;;;6.00;37.50;;;;;;7375417;19;20471;-72
2022/11/11 07:56:37;;;;;;;18.00;10.02;;;6.00;37.30;;;;;;7360127;19;20011;-72
2022/11/11 07:59:07;;;;;;;18.27;10.00;;;6.00;37.80;;;;;;7358791;19;20020;-72
2022/11/11 08:01:37;;;;;;;14.15;9.82;;;6.10;36.40;;;;;;7357302;19;20058;-73
2022/11/11 08:04:09;;;;;;;19.33;9.65;;;6.10;36.80;;;;;;7354390;19;20775;-72
2022/11/11 08:06:39;;;;;;;14.40;8.52;;;6.10;36.40;;;;;;7359693;19;20029;-72
2022/11/11 08:09:09;;;;;;;14.65;9.40;;;6.10;36.50;;;;;;7381499;19;20022;-72
2022/11/11 08:14:21;;;;;;;14.20;9.05;;;6.20;35.80;;;;;;7350659;19;20021;-72
2022/11/11 08:16:51;;;;;;;15.10;11.00;;;6.40;35.80;;;;;;7359414;19;20015;-72
2022/11/11 08:19:23;;;;;;;15.25;11.02;;;6.50;35.10;;;;;;7358610;19;20034;-71
2022/11/11 08:21:53;;;;;;;17.73;10.85;;;6.50;34.50;;;;;;7361107;19;20026;-72
2022/11/11 08:24:23;;;;;;;14.32;9.68;;;6.60;34.60;;;;;;7383020;19;20029;-72
2022/11/11 08:27:13;;;;;;;11.27;8.75;;;6.70;33.60;;;;;;7364470;19;20458;-72
2022/11/11 08:29:43;;;;;;;12.20;8.20;;;6.70;31.20;;;;;;7364671;19;20017;-72
2022/11/11 08:32:13;;;;;;;11.25;8.63;;;6.60;30.90;;;;;;7361905;19;20094;-72
2022/11/11 08:34:45;;;;;;;9.95;7.90;;;6.70;31.10;;;;;;7364212;19;20006;-71
2022/11/11 08:37:15;;;;;;;14.00;7.82;;;6.80;30.80;;;;;;7365467;19;20061;-72
2022/11/11 08:39:45;;;;;;;12.27;8.18;;;6.80;30.10;;;;;;7367684;19;20015;-71
2022/11/11 08:42:15;;;;;;;11.45;8.27;;;6.90;29.50;;;;;;7381800;19;20006;-72
2022/11/11 08:44:45;;;;;;;13.40;8.60;;;7.00;29.20;;;;;;7362042;19;20046;-72
2022/11/11 08:47:15;;;;;;;13.30;8.43;;;7.10;29.10;;;;;;7367157;19;20069;-72
2022/11/11 08:49:48;;;;;;;15.73;8.63;;;7.20;27.90;;;;;;7366761;19;20829;-72
2022/11/11 08:52:18;;;;;;;12.10;7.97;;;7.40;28.00;;;;;;7363981;19;20029;-71
2022/11/11 08:54:48;;;;;;;11.98;7.75;;;7.40;25.20;;;;;;7363563;19;20021;-73
2022/11/11 08:57:18;;;;;;;9.93;7.03;;;7.50;24.70;;;;;;7387378;19;20022;-73
2022/11/11 08:59:47;;;;;;;13.55;6.85;;;7.60;24.20;;;;;;7365954;19;20025;-72
2022/11/11 09:02:17;;;;;;;12.00;7.30;;;7.80;23.30;;;;;;7361809;19;20522;-72
2022/11/11 09:04:50;;;;;;;12.15;6.80;;;7.90;21.60;;;;;;7352523;19;20015;-73
2022/11/11 09:07:24;;;;;;;13.13;6.88;;;8.10;20.90;;;;;;7354594;19;20102;-72
2022/11/11 09:09:54;;;;;;;10.20;6.22;;;8.20;20.10;;;;;;7355875;19;20018;-71
2022/11/11 09:12:24;;;;;;;12.57;7.18;;;8.30;19.00;;;;;;7373028;19;20022;-73
2022/11/11 09:14:54;;;;;;;9.10;6.40;;;8.60;18.40;;;;;;7350472;19;20014;-72
2022/11/11 09:17:24;;;;;;;11.32;6.80;;;8.60;13.70;;;;;;7355387;19;20119;-71
2022/11/11 09:19:56;;;;;;;10.57;6.45;;;8.60;14.10;;;;;;7355431;19;20014;-72
2022/11/11 09:22:26;;;;;;;14.52;6.47;;;8.80;15.00;;;;;;7350417;19;20026;-73
2022/11/11 09:24:56;;;;;;;11.43;6.25;;;8.90;14.30;;;;;;7352469;19;20018;-72
2022/11/11 09:27:26;;;;;;;19.13;13.27;;;8.90;13.70;;;;;;7376020;19;20010;-73
2022/11/11 09:29:56;;;;;;;15.40;10.25;;;9.10;15.20;;;;;;7354222;19;20018;-71
2022/11/11 09:32:25;;;;;;;11.60;7.38;;;9.30;11.90;;;;;;7349342;19;20003;-72
2022/11/11 09:34:59;;;;;;;10.32;6.53;;;9.50;11.90;;;;;;7352816;19;20014;-73
2022/11/11 09:37:29;;;;;;;8.10;6.00;;;9.50;10.60;;;;;;7355493;19;20010;-73
2022/11/11 09:39:59;;;;;;;10.57;6.93;;;9.70;8.60;;;;;;7355534;19;20019;-72
2022/11/11 09:42:39;;;;;;;8.77;7.13;;;9.50;9.30;;;;;;7375354;19;20090;-72
2022/11/11 09:45:20;;;;;;;11.95;6.93;;;9.80;9.80;;;;;;7355550;19;20454;-72
2022/11/11 09:47:59;;;;;;;11.60;6.80;;;9.90;8.70;;;;;;7351246;19;20316;-72
2022/11/11 09:50:40;;;;;;;8.50;5.90;;;10.10;7.80;;;;;;7355539;19;20613;-73
2022/11/11 09:53:19;;;;;;;10.38;5.50;;;9.90;7.10;;;;;;7349744;19;20011;-71
2022/11/11 09:56:01;;;;;;;11.88;5.10;;;10.10;7.60;;;;;;7355570;19;20046;-73
2022/11/11 09:58:35;;;;;;;8.18;5.35;;;10.10;6.50;;;;;;7355034;19;20006;-73
2022/11/11 10:01:12;;;;;;;8.05;5.57;;;10.20;6.80;;;;;;7355361;19;20051;-73
2022/11/11 10:03:45;;;;;;;8.02;5.53;;;10.40;7.20;;;;;;7354640;19;20048;-71
2022/11/11 10:06:22;;;;;;;8.50;5.53;;;10.50;5.30;;;;;;7377005;19;20033;-71
2022/11/11 10:09:01;;;;;;;8.85;5.38;;;10.50;6.00;;;;;;7354097;19;20043;-72
2022/11/11 10:11:45;;;;;;;8.07;5.22;;;10.70;5.10;;;;;;7353569;19;20007;-72
2022/11/11 10:14:15;;;;;;;8.45;5.32;;;10.60;4.60;;;;;;7348383;19;20021;-71
2022/11/11 10:16:52;;;;;;;9.35;5.15;;;10.60;5.20;;;;;;7352097;19;20025;-72
2022/11/11 10:19:31;;;;;;;6.82;5.30;;;10.60;4.50;;;;;;7350493;19;20070;-72
2022/11/11 10:22:07;;;;;;;5.85;4.97;;;10.60;5.50;;;;;;7351919;19;20586;-71
2022/11/11 10:24:44;;;;;;;6.75;5.10;;;10.80;5.60;;;;;;7354251;19;20393;-72
2022/11/11 10:27:21;;;;;;;7.45;5.35;;;10.60;3.80;;;;;;7374221;19;20044;-71
2022/11/11 10:29:52;;;;;;;6.78;5.30;;;10.60;5.60;;;;;;7353654;19;20024;-72
2022/11/11 10:32:26;;;;;;;8.13;6.03;;;10.80;5.80;;;;;;7349608;19;20030;-72
2022/11/11 10:35:01;;;;;;;10.18;5.85;;;10.80;4.60;;;;;;7350391;19;20441;-72
2022/11/11 10:37:41;;;;;;;7.88;5.03;;;11.00;4.50;;;;;;7353316;19;20106;-71
2022/11/11 10:40:19;;;;;;;9.82;6.03;;;11.20;3.90;;;;;;7354585;19;20014;-71
2022/11/11 10:42:50;;;;;;;9.40;5.78;;;11.20;1.40;;;;;;7346257;19;20474;-71
2022/11/11 10:45:26;;;;;;;8.68;5.55;;;11.20;1.50;;;;;;7373701;19;20040;-72
2022/11/11 10:48:00;;;;;;;6.47;5.32;;;11.10;1.90;;;;;;7352060;19;20109;-72
2022/11/11 10:50:33;;;;;;;;;;;11.20;3.00;;;;;;7353759;19;20010;-72
2022/11/11 10:53:18;;;;;;;10.82;5.93;;;11.30;2.60;;;;;;7347242;19;20430;-71
2022/11/11 10:55:55;;;;;;;10.00;6.07;;;11.50;3.50;;;;;;7354468;19;20014;-71
2022/11/11 10:58:32;;;;;;;8.95;6.28;;;11.70;3.40;;;;;;7352591;19;20681;-72
2022/11/11 11:01:04;;;;;;;9.18;5.78;;;11.80;3.20;;;;;;7352280;19;20030;-72
2022/11/11 11:03:38;;;;;;;13.48;6.72;;;11.80;2.80;;;;;;7367894;19;20504;-71
2022/11/11 11:06:12;;;;;;;9.07;5.70;;;11.80;3.30;;;;;;7351829;19;20007;-72
2022/11/11 11:08:49;;;;;;;12.45;6.18;;;11.70;2.80;;;;;;7352034;19;20010;-72
2022/11/11 11:11:23;;;;;;;8.98;5.93;;;11.70;2.80;;;;;;7353232;19;20011;-72
2022/11/11 11:13:56;;;;;;;8.05;6.28;;;11.80;3.30;;;;;;7348223;19;20046;-72
2022/11/11 11:16:35;;;;;;;8.73;5.68;;;11.80;3.10;;;;;;7353161;19;20489;-72
2022/11/11 11:19:17;;;;;;;11.20;5.88;;;11.90;2.60;;;;;;7351581;19;20014;-72
2022/11/11 11:21:55;;;;;;;8.77;5.80;;;11.80;2.70;;;;;;7350221;19;20025;-72
2022/11/11 11:24:30;;;;;;;9.07;5.43;;;11.70;3.00;;;;;;7370024;19;20014;-73
2022/11/11 11:27:02;;;;;;;7.93;5.80;;;11.70;3.30;;;;;;7351446;19;20010;-71
2022/11/11 11:29:34;;;;;;;6.07;5.28;;;11.90;3.70;;;;;;7342395;19;20071;-73
2022/11/11 11:32:14;;;;;;;8.07;5.97;;;12.00;3.80;;;;;;7348432;19;20018;-72
2022/11/11 11:34:50;;;;;;;12.02;5.90;;;12.20;2.50;;;;;;7349131;19;20039;-73
2022/11/11 11:37:22;;;;;;;9.35;6.47;;;12.20;2.20;;;;;;7350558;19;20014;-73
2022/11/11 11:40:01;;;;;;;11.18;6.50;;;12.20;1.80;;;;;;7353769;19;20046;-73
2022/11/11 11:42:33;;;;;;;13.30;7.97;;;12.30;1.90;;;;;;7368959;19;20010;-73
2022/11/11 11:45:21;;;;;;;10.32;8.20;;;12.40;1.90;;;;;;7349253;19;20046;-73
2022/11/11 11:48:07;;;;;;;8.73;6.68;;;12.50;1.30;;;;;;7349250;19;20025;-72
2022/11/11 11:51:03;;;;;;;9.45;6.57;;;12.50;1.30;;;;;;7352263;19;20082;-73
2022/11/11 11:53:41;;;;;;;7.55;5.85;;;12.50;1.00;;;;;;7345071;19;20016;-73
2022/11/11 11:56:22;;;;;;;7.97;6.25;;;12.60;1.00;;;;;;7352435;19;20454;-74
2022/11/11 11:59:00;;;;;;;9.13;5.93;;;12.50;1.00;;;;;;7358713;19;20647;-74
2022/11/11 12:01:38;;;;;;;11.35;6.05;;;12.70;1.00;;;;;;7359047;19;20103;-72
2022/11/11 12:04:28;;;;;;;8.57;6.18;;;12.70;1.00;;;;;;7351881;19;20086;-73
2022/11/11 12:07:11;;;;;;;8.13;5.35;;;12.90;1.00;;;;;;7358024;19;20014;-72
2022/11/11 12:09:56;;;;;;;7.65;4.88;;;12.90;1.00;;;;;;7374073;19;20014;-74
2022/11/11 12:12:39;;;;;;;6.25;4.50;;;13.00;1.00;;;;;;7376691;19;20362;-75
2022/11/11 12:15:23;;;;;;;8.43;4.95;;;13.00;1.00;;;;;;7356186;19;20014;-72
2022/11/11 12:18:00;;;;;;;6.17;4.70;;;13.00;1.00;;;;;;7355910;19;20014;-74
2022/11/11 12:20:38;;;;;;;7.45;5.22;;;13.00;1.00;;;;;;7358571;19;20267;-73
2022/11/11 12:23:29;;;;;;;8.32;5.20;;;13.00;1.00;;;;;;7352351;19;20002;-73
2022/11/11 12:26:08;;;;;;;6.53;4.47;;;13.10;1.00;;;;;;7356871;19;20018;-73
2022/11/11 12:28:58;;;;;;;12.95;5.60;;;13.00;1.00;;;;;;7358028;19;20235;-72
2022/11/11 12:31:39;;;;;;;9.68;5.45;;;13.00;1.00;;;;;;7357154;19;20006;-73
2022/11/11 12:34:25;;;;;;;7.55;4.78;;;13.00;1.00;;;;;;7349919;19;20018;-73
2022/11/11 12:37:04;;;;;;;8.38;4.95;;;13.00;1.00;;;;;;7356121;19;20026;-73
2022/11/11 12:39:58;;;;;;;9.30;4.90;;;13.00;1.00;;;;;;7378377;19;20017;-72
2022/11/11 12:42:43;;;;;;;7.40;5.30;;;13.00;1.00;;;;;;7352885;19;20021;-73
2022/11/11 12:45:20;;;;;;;6.50;4.30;;;12.90;1.00;;;;;;7357194;19;20010;-73
2022/11/11 12:47:59;;;;;;;7.15;4.30;;;12.90;1.00;;;;;;7353512;19;20033;-73
2022/11/11 12:50:38;;;;;;;5.63;4.05;;;13.00;1.00;;;;;;7352389;19;20018;-72
2022/11/11 12:53:24;;;;;;;5.35;3.65;;;13.00;1.00;;;;;;7350654;19;20132;-72
2022/11/11 12:56:06;;;;;;;5.68;3.67;;;12.90;1.00;;;;;;7350177;19;20010;-74
2022/11/11 12:58:45;;;;;;;5.03;3.20;;;12.90;1.00;;;;;;7361192;19;20389;-73
2022/11/11 13:01:23;;;;;;;5.70;3.22;;;12.90;1.00;;;;;;7357941;19;20011;-72
2022/11/11 13:04:04;;;;;;;6.47;3.58;;;12.90;1.00;;;;;;7346250;19;20018;-73
2022/11/11 13:06:57;;;;;;;6.32;3.05;;;12.90;1.00;;;;;;7375681;19;20347;-73
2022/11/11 13:09:48;;;;;;;6.57;3.17;;;12.90;1.00;;;;;;7355319;19;20022;-73
2022/11/11 13:12:24;;;;;;;8.38;3.28;;;12.90;1.00;;;;;;7348682;19;20017;-73
2022/11/11 13:15:04;;;;;;;3.22;2.72;;;12.90;1.00;;;;;;7351485;19;20448;-73
2022/11/11 13:17:37;;;;;;;5.22;3.25;;;13.00;1.00;;;;;;7352264;19;20015;-74
2022/11/11 13:20:17;;;;;;;7.63;3.63;;;13.10;1.00;;;;;;7353765;19;20011;-73
2022/11/11 13:22:50;;;;;;;6.90;3.28;;;13.10;1.00;;;;;;7348255;19;20017;-73
2022/11/11 13:25:25;;;;;;;6.53;3.72;;;13.20;1.00;;;;;;7354025;19;20011;-73
2022/11/11 13:27:59;;;;;;;7.47;4.32;;;13.30;1.00;;;;;;7350309;19;20018;-73
2022/11/11 13:30:47;;;;;;;6.82;3.58;;;13.30;1.00;;;;;;7378963;19;20015;-72
2022/11/11 13:33:22;;;;;;;5.57;3.80;;;13.30;1.00;;;;;;7350654;19;20018;-73
2022/11/11 13:35:58;;;;;;;9.35;4.20;;;13.20;1.00;;;;;;7356149;19;20010;-73
2022/11/11 13:38:31;;;;;;;7.35;3.75;;;13.20;1.00;;;;;;7353793;19;20058;-73
2022/11/11 13:41:04;;;;;;;5.03;3.22;;;13.20;1.00;;;;;;7356016;19;20009;-74
2022/11/11 13:43:38;;;;;;;8.25;3.67;;;13.20;1.00;;;;;;7350447;19;20046;-72
2022/11/11 13:46:09;;;;;;;8.15;3.40;;;13.10;1.00;;;;;;7355653;19;20010;-73
2022/11/11 13:48:50;;;;;;;5.45;3.78;;;13.00;1.00;;;;;;7377023;19;20047;-73
2022/11/11 13:51:30;;;;;;;6.60;3.97;;;13.00;1.00;;;;;;7356272;19;20028;-73
2022/11/11 13:54:01;;;;;;;8.45;4.32;;;13.10;1.00;;;;;;7348620;19;20021;-72
2022/11/11 13:56:38;;;;;;;6.38;3.65;;;13.20;1.00;;;;;;7353236;19;20525;-73
2022/11/11 13:59:09;;;;;;;5.88;4.28;;;13.10;1.00;;;;;;7352214;19;20444;-73
2022/11/11 14:01:40;;;;;;;8.90;3.85;;;13.10;1.00;;;;;;7353111;19;20126;-73
2022/11/11 14:04:14;;;;;;;9.00;3.72;;;13.00;1.00;;;;;;7345367;19;20009;-73
2022/11/11 14:06:55;;;;;;;5.80;3.85;;;13.10;1.00;;;;;;7345001;19;20022;-73
2022/11/11 14:09:55;;;;;;;6.72;3.47;;;13.00;1.00;;;;;;7367859;19;20020;-73
2022/11/11 14:12:39;;;;;;;5.85;3.20;;;13.00;1.00;;;;;;7346354;19;20007;-73
2022/11/11 14:15:39;;;;;;;7.38;3.42;;;13.10;1.00;;;;;;7350763;19;20013;-73
2022/11/11 14:18:12;;;;;;;12.10;6.28;;;13.10;1.00;;;;;;7348536;19;20002;-73
2022/11/11 14:20:47;;;;;;;5.50;3.45;;;13.00;1.00;;;;;;7354600;19;20364;-74
2022/11/11 14:23:35;;;;;;;8.02;3.30;;;13.00;1.00;;;;;;7349131;19;20051;-73
2022/11/11 14:26:24;;;;;;;6.13;3.25;;;13.10;1.00;;;;;;7354545;19;20025;-73
2022/11/11 14:28:57;;;;;;;6.07;3.35;;;13.20;1.00;;;;;;7353553;19;20082;-75
2022/11/11 14:31:55;;;;;;;9.95;3.50;;;13.20;1.00;;;;;;7354193;19;20007;-75
2022/11/11 14:35:10;;;;;;;4.68;3.45;;;13.10;1.00;;;;;;7351135;19;20246;-72
2022/11/11 14:38:05;;;;;;;5.82;3.17;;;13.10;1.00;;;;;;7356786;19;20041;-71
2022/11/11 14:40:35;;;;;;;4.95;2.92;;;13.10;1.00;;;;;;7357312;19;20500;-73
2022/11/11 14:43:39;;;;;;;4.25;3.13;;;13.10;1.00;;;;;;7348524;19;20011;-74
2022/11/11 14:46:10;;;;;;;7.20;3.30;;;13.00;1.00;;;;;;7352851;19;20096;-74
2022/11/11 14:48:59;;;;;;;5.40;3.17;;;12.90;1.00;;;;;;7353700;19;20053;-74
2022/11/11 14:51:46;;;;;;;13.07;3.88;;;12.80;1.00;;;;;;7375519;19;20011;-73
2022/11/11 14:54:55;;;;;;;6.70;3.40;;;12.70;1.00;;;;;;7347797;19;20011;-73
2022/11/11 14:57:33;;;;;;;8.30;3.80;;;12.70;1.00;;;;;;7351320;19;20086;-73